createdAt,value
2022-08-11T00:02:27.508Z,48.21
2022-08-11T00:04:57.714Z,47.59
2022-08-11T00:07:28.286Z,47.50
2022-08-11T00:09:58.281Z,47.91
2022-08-11T00:12:28.514Z,48.24
2022-08-11T00:14:59.475Z,48.34
2022-08-11T00:17:30.401Z,48.11
2022-08-11T00:20:11.884Z,48.55
2022-08-11T00:22:46.902Z,48.13
2022-08-11T00:25:17.505Z,47.72
2022-08-11T00:27:48.424Z,47.94
2022-08-11T00:30:18.616Z,48.29
2022-08-11T00:32:55.626Z,48.65
2022-08-11T00:35:55.939Z,48.91
2022-08-11T00:38:17.920Z,48.89
2022-08-11T00:40:52.934Z,48.56
2022-08-11T00:43:24.021Z,48.68
2022-08-11T00:46:12.244Z,48.96
2022-08-11T00:48:48.268Z,49.05
2022-08-11T00:51:21.472Z,49.27
2022-08-11T00:53:55.302Z,49.19
2022-08-11T00:56:51.300Z,49.17
2022-08-11T00:59:35.160Z,49.26
2022-08-11T01:02:14.052Z,49.48
2022-08-11T01:04:57.452Z,49.64
2022-08-11T01:08:02.618Z,49.75
2022-08-11T01:10:50.508Z,49.92
2022-08-11T01:13:31.464Z,50.33
2022-08-11T01:16:14.785Z,50.58
2022-08-11T01:19:01.636Z,50.72
2022-08-11T01:21:45.000Z,50.84
2022-08-11T01:24:46.790Z,50.96
2022-08-11T01:27:21.299Z,51.00
2022-08-11T01:30:10.541Z,50.86
2022-08-11T01:32:57.179Z,50.48
2022-08-11T01:35:39.373Z,50.25
2022-08-11T01:38:33.110Z,50.05
2022-08-11T01:41:25.831Z,49.84
2022-08-11T01:44:22.608Z,49.50
2022-08-11T01:46:53.749Z,49.22
2022-08-11T01:50:05.848Z,49.01
2022-08-11T01:52:19.072Z,48.87
2022-08-11T01:54:51.584Z,48.81
2022-08-11T01:57:27.622Z,48.52
2022-08-11T01:59:58.323Z,48.37
2022-08-11T02:02:48.416Z,48.29
2022-08-11T02:05:30.714Z,47.94
2022-08-11T02:08:03.335Z,47.93
2022-08-11T02:10:52.302Z,47.77
2022-08-11T02:13:35.586Z,47.71
2022-08-11T02:16:10.125Z,47.61
2022-08-11T02:18:57.841Z,47.43
2022-08-11T02:21:47.235Z,47.59
2022-08-11T02:24:18.704Z,47.28
2022-08-11T02:26:50.499Z,47.56
2022-08-11T02:29:22.508Z,47.51
2022-08-11T02:32:29.725Z,47.60
2022-08-11T02:35:05.330Z,47.65
2022-08-11T02:37:43.983Z,47.86
2022-08-11T02:40:17.741Z,48.11
2022-08-11T02:42:54.669Z,48.11
2022-08-11T02:45:33.087Z,48.23
2022-08-11T02:48:22.045Z,48.34
2022-08-11T02:50:53.668Z,48.41
2022-08-11T02:53:25.471Z,48.43
2022-08-11T02:55:58.373Z,48.61
2022-08-11T02:58:32.327Z,48.51
2022-08-11T03:01:05.166Z,48.62
2022-08-11T03:03:37.558Z,48.28
2022-08-11T03:06:10.076Z,48.24
2022-08-11T03:08:52.749Z,48.17
2022-08-11T03:11:44.963Z,48.07
2022-08-11T03:14:34.793Z,47.91
2022-08-11T03:17:07.851Z,47.93
2022-08-11T03:19:42.578Z,47.90
2022-08-11T03:22:14.880Z,47.85
2022-08-11T03:24:51.093Z,47.47
2022-08-11T03:27:27.381Z,47.58
2022-08-11T03:30:02.920Z,47.61
2022-08-11T03:32:34.548Z,47.52
2022-08-11T03:35:04.994Z,47.48
2022-08-11T03:37:50.655Z,47.51
2022-08-11T03:41:00.129Z,47.67
2022-08-11T03:43:45.770Z,47.80
2022-08-11T03:46:31.605Z,47.88
2022-08-11T03:49:03.922Z,47.90
2022-08-11T03:51:44.795Z,48.03
2022-08-11T03:54:24.378Z,48.34
2022-08-11T03:57:16.117Z,48.36
2022-08-11T04:00:02.563Z,48.46
2022-08-11T04:03:03.202Z,48.50
2022-08-11T04:05:44.307Z,48.47
2022-08-11T04:08:40.084Z,48.54
2022-08-11T04:11:22.773Z,48.51
2022-08-11T04:14:32.564Z,48.70
2022-08-11T04:17:19.801Z,48.65
2022-08-11T04:20:13.353Z,48.64
2022-08-11T04:23:03.690Z,48.35
2022-08-11T04:25:57.820Z,48.35
2022-08-11T04:28:43.001Z,48.30
2022-08-11T04:31:50.868Z,48.35
2022-08-11T04:34:37.545Z,48.71
2022-08-11T04:37:35.045Z,48.55
2022-08-11T04:40:33.722Z,48.40
2022-08-11T04:43:22.686Z,48.20
2022-08-11T04:46:06.797Z,48.21
2022-08-11T04:49:25.677Z,48.17
2022-08-11T04:52:24.493Z,48.00
2022-08-11T04:55:26.940Z,48.26
2022-08-11T04:58:19.460Z,48.18
2022-08-11T05:01:09.878Z,48.22
2022-08-11T05:03:59.466Z,47.99
2022-08-11T05:06:45.234Z,48.00
2022-08-11T05:09:23.872Z,48.04
2022-08-11T05:12:01.986Z,48.08
2022-08-11T05:14:57.445Z,48.04
2022-08-11T05:17:47.103Z,47.80
2022-08-11T05:20:34.726Z,48.07
2022-08-11T05:23:23.144Z,47.94
2022-08-11T05:26:46.698Z,47.27
2022-08-11T05:29:21.193Z,46.28
2022-08-11T05:32:10.261Z,46.22
2022-08-11T05:34:57.036Z,46.11
2022-08-11T05:37:32.223Z,45.86
2022-08-11T05:40:20.335Z,46.01
2022-08-11T05:43:09.391Z,46.19
2022-08-11T05:46:04.787Z,45.65
2022-08-11T05:48:54.472Z,45.13
2022-08-11T05:51:52.273Z,45.34
2022-08-11T05:54:46.096Z,44.64
2022-08-11T05:57:39.708Z,44.48
2022-08-11T06:00:13.665Z,44.61
2022-08-11T06:02:43.830Z,44.59
2022-08-11T06:05:14.686Z,44.84
2022-08-11T06:07:47.273Z,45.30
2022-08-11T06:10:31.142Z,44.69
2022-08-11T06:13:02.397Z,44.72
2022-08-11T06:15:34.941Z,44.87
2022-08-11T06:18:05.102Z,45.05
2022-08-11T06:20:37.755Z,44.63
2022-08-11T06:23:08.984Z,45.25
2022-08-11T06:25:39.777Z,45.77
2022-08-11T06:28:09.905Z,46.02
2022-08-11T06:30:42.835Z,44.82
2022-08-11T06:33:15.175Z,44.37
2022-08-11T06:35:49.985Z,43.79
2022-08-11T06:38:25.224Z,43.24
2022-08-11T06:41:14.296Z,42.93
2022-08-11T06:43:55.381Z,42.37
2022-08-11T06:46:28.982Z,42.36
2022-08-11T06:48:59.120Z,41.76
2022-08-11T06:51:32.388Z,41.40
2022-08-11T06:54:05.757Z,41.36
2022-08-11T06:57:12.147Z,40.90
2022-08-11T07:00:01.604Z,39.91
2022-08-11T07:02:34.133Z,39.85
2022-08-11T07:05:08.650Z,39.95
2022-08-11T07:08:33.858Z,39.91
2022-08-11T07:11:21.820Z,39.29
2022-08-11T07:14:17.981Z,38.94
2022-08-11T07:16:49.517Z,38.41
2022-08-11T07:19:40.630Z,38.94
2022-08-11T07:22:29.823Z,38.62
2022-08-11T07:25:18.667Z,38.63
2022-08-11T07:28:05.928Z,37.85
2022-08-11T07:30:41.427Z,38.63
2022-08-11T07:33:11.543Z,38.56
2022-08-11T07:36:02.015Z,38.65
2022-08-11T07:38:47.309Z,37.94
2022-08-11T07:41:18.270Z,38.05
2022-08-11T07:43:49.900Z,37.62
2022-08-11T07:46:37.250Z,37.56
2022-08-11T07:49:25.297Z,37.86
2022-08-11T07:52:12.662Z,37.20
2022-08-11T07:54:42.797Z,36.94
2022-08-11T07:58:13.712Z,36.76
2022-08-11T08:00:40.334Z,36.43
2022-08-11T08:03:28.197Z,36.40
2022-08-11T08:06:36.221Z,35.99
2022-08-11T08:09:23.176Z,35.58
2022-08-11T08:12:10.522Z,35.69
2022-08-11T08:14:58.131Z,35.98
2022-08-11T08:18:08.431Z,35.67
2022-08-11T08:20:39.201Z,35.42
2022-08-11T08:23:09.599Z,35.48
2022-08-11T08:25:39.838Z,35.13
2022-08-11T08:28:14.341Z,35.06
2022-08-11T08:30:51.281Z,35.19
2022-08-11T08:33:22.348Z,34.60
2022-08-11T08:36:12.006Z,34.24
2022-08-11T08:38:42.977Z,33.84
2022-08-11T08:41:16.288Z,34.02
2022-08-11T08:43:48.820Z,33.95
2022-08-11T08:46:19.542Z,33.86
2022-08-11T08:48:49.388Z,33.51
2022-08-11T08:52:01.170Z,33.40
2022-08-11T08:54:26.886Z,33.13
2022-08-11T08:56:56.840Z,32.54
2022-08-11T08:59:47.753Z,32.49
2022-08-11T09:02:17.521Z,32.37
2022-08-11T09:04:47.667Z,32.19
2022-08-11T09:07:18.083Z,32.45
2022-08-11T09:09:49.656Z,32.49
2022-08-11T09:12:46.401Z,32.40
2022-08-11T09:15:12.071Z,31.92
2022-08-11T09:17:42.731Z,31.86
2022-08-11T09:20:13.331Z,31.97
2022-08-11T09:26:09.029Z,32.34
2022-08-11T09:28:38.962Z,32.42
2022-08-11T09:31:08.858Z,32.56
2022-08-11T09:33:38.718Z,32.40
2022-08-11T09:36:28.699Z,32.35
2022-08-11T09:39:16.130Z,31.72
2022-08-11T09:42:00.969Z,31.34
2022-08-11T09:44:50.769Z,30.62
2022-08-11T09:47:23.462Z,30.89
2022-08-11T09:49:53.804Z,31.15
2022-08-11T09:52:23.612Z,31.40
2022-08-11T09:54:53.408Z,31.32
2022-08-11T09:57:41.278Z,30.98
2022-08-11T10:00:14.197Z,30.08
2022-08-11T10:02:45.800Z,29.80
2022-08-11T10:05:33.507Z,29.06
2022-08-11T10:08:03.267Z,28.95
2022-08-11T10:10:33.566Z,29.74
2022-08-11T10:13:05.552Z,30.41
2022-08-11T10:16:14.774Z,29.43
2022-08-11T10:18:53.229Z,28.01
2022-08-11T10:21:28.658Z,27.48
2022-08-11T10:24:17.663Z,27.27
2022-08-11T10:27:00.322Z,26.55
2022-08-11T10:29:49.886Z,26.64
2022-08-11T10:32:57.619Z,26.64
2022-08-11T10:35:29.720Z,27.12
2022-08-11T10:38:06.098Z,27.07
2022-08-11T10:40:39.253Z,26.86
2022-08-11T10:43:14.308Z,26.55
2022-08-11T10:46:03.950Z,26.69
2022-08-11T10:48:38.181Z,26.77
2022-08-11T10:51:47.988Z,26.75
2022-08-11T10:54:26.138Z,26.58
2022-08-11T10:57:13.494Z,26.55
2022-08-11T10:59:43.780Z,26.87
2022-08-11T11:02:15.583Z,26.81
2022-08-11T11:04:51.043Z,26.87
2022-08-11T11:07:22.728Z,26.77
2022-08-11T11:09:52.999Z,26.85
2022-08-11T11:12:43.839Z,27.28
2022-08-11T11:15:31.664Z,26.94
2022-08-11T11:18:05.097Z,26.91
2022-08-11T11:20:40.018Z,27.17
2022-08-11T11:23:14.309Z,27.48
2022-08-11T11:26:11.164Z,26.96
2022-08-11T11:28:53.513Z,27.11
2022-08-11T11:31:28.157Z,27.50
2022-08-11T11:34:12.095Z,27.02
2022-08-11T11:36:46.462Z,26.97
2022-08-11T11:39:17.263Z,27.00
2022-08-11T11:41:47.245Z,26.60
2022-08-11T11:44:17.172Z,26.48
2022-08-11T11:46:47.035Z,26.52
2022-08-11T11:49:17.552Z,26.50
2022-08-11T11:51:50.014Z,26.55
2022-08-11T11:54:20.199Z,26.83
2022-08-11T11:56:53.414Z,27.15
2022-08-11T11:59:41.195Z,27.24
2022-08-11T12:02:12.631Z,27.09
2022-08-11T12:04:43.941Z,26.96
2022-08-11T12:07:31.580Z,27.03
2022-08-11T12:10:01.605Z,27.10
2022-08-11T12:12:49.777Z,26.85
2022-08-11T12:16:04.334Z,26.69
2022-08-11T12:18:10.850Z,26.77
2022-08-11T12:20:40.762Z,26.96
2022-08-11T12:23:28.455Z,26.65
2022-08-11T12:26:26.982Z,26.43
2022-08-11T12:29:01.489Z,26.35
2022-08-11T12:31:31.957Z,26.43
2022-08-11T12:34:05.448Z,26.44
2022-08-11T12:36:37.281Z,26.57
2022-08-11T12:39:23.413Z,26.58
2022-08-11T12:42:16.058Z,26.64
2022-08-11T12:45:04.423Z,26.32
2022-08-11T12:48:57.532Z,26.44
2022-08-11T12:51:04.074Z,26.42
2022-08-11T12:53:34.345Z,26.14
2022-08-11T12:56:22.192Z,26.25
2022-08-11T12:58:52.745Z,26.11
2022-08-11T13:01:40.716Z,26.20
2022-08-11T13:04:28.587Z,26.59
2022-08-11T13:06:58.468Z,26.81
2022-08-11T13:09:28.968Z,26.99
2022-08-11T13:12:16.552Z,26.92
2022-08-11T13:14:46.918Z,26.83
2022-08-11T13:17:40.299Z,27.19
2022-08-11T13:20:14.056Z,29.26
2022-08-11T13:22:46.108Z,30.52
2022-08-11T13:25:16.578Z,31.35
2022-08-11T13:27:46.889Z,32.15
2022-08-11T13:30:38.805Z,32.43
2022-08-11T13:33:10.623Z,32.66
2022-08-11T13:35:40.854Z,33.18
2022-08-11T13:38:18.476Z,33.35
2022-08-11T13:40:56.004Z,34.08
2022-08-11T13:43:26.885Z,34.44
2022-08-11T13:46:16.984Z,34.66
2022-08-11T13:48:47.132Z,34.92
2022-08-11T13:51:35.199Z,35.30
2022-08-11T13:54:06.602Z,35.45
2022-08-11T13:56:39.924Z,35.55
2022-08-11T13:59:10.301Z,35.88
2022-08-11T14:02:20.677Z,36.08
2022-08-11T14:04:33.679Z,36.01
2022-08-11T14:07:05.825Z,36.15
2022-08-11T14:09:37.374Z,36.05
2022-08-11T14:12:26.000Z,35.80
2022-08-11T14:14:58.108Z,35.83
2022-08-11T14:17:44.183Z,35.81
2022-08-11T14:20:40.495Z,36.14
2022-08-11T14:23:08.492Z,36.34
2022-08-11T14:26:00.684Z,36.51
2022-08-11T14:28:37.357Z,36.83
2022-08-11T14:31:10.085Z,36.72
2022-08-11T14:34:00.347Z,36.91
2022-08-11T14:36:30.156Z,36.89
2022-08-11T14:39:00.006Z,36.81
2022-08-11T14:42:07.592Z,36.54
2022-08-11T14:44:55.182Z,36.32
2022-08-11T14:47:25.714Z,36.60
2022-08-11T14:50:04.997Z,36.64
2022-08-11T14:52:42.792Z,36.78
2022-08-11T14:55:30.469Z,37.02
2022-08-11T14:58:00.245Z,37.49
2022-08-11T15:00:29.999Z,38.01
2022-08-11T15:03:12.221Z,37.98
2022-08-11T15:05:53.683Z,38.38
2022-08-11T15:08:47.645Z,38.58
2022-08-11T15:11:38.283Z,38.61
2022-08-11T15:14:10.799Z,38.64
2022-08-11T15:17:01.971Z,38.97
2022-08-11T15:19:40.282Z,39.04
2022-08-11T15:22:29.390Z,39.19
2022-08-11T15:25:00.669Z,38.98
2022-08-11T15:27:48.343Z,39.08
2022-08-11T15:30:35.962Z,39.05
2022-08-11T15:33:25.198Z,38.78
2022-08-11T15:36:13.255Z,38.56
2022-08-11T15:38:44.662Z,38.58
2022-08-11T15:41:33.127Z,38.55
2022-08-11T15:44:26.844Z,38.40
2022-08-11T15:47:09.392Z,38.11
2022-08-11T15:50:12.748Z,37.99
2022-08-11T15:52:32.254Z,37.72
2022-08-11T15:55:02.860Z,37.58
2022-08-11T15:57:51.236Z,37.39
2022-08-11T16:00:38.708Z,37.33
2022-08-11T16:04:06.046Z,37.21
2022-08-11T16:06:16.263Z,37.23
2022-08-11T16:08:46.603Z,37.07
2022-08-11T16:11:17.010Z,37.03
2022-08-11T16:14:04.601Z,36.89
2022-08-11T16:16:36.164Z,37.07
2022-08-11T16:19:09.755Z,37.08
2022-08-11T16:21:43.284Z,37.15
2022-08-11T16:25:58.202Z,37.16
2022-08-11T16:27:13.165Z,37.14
2022-08-11T16:29:44.294Z,37.27
2022-08-11T16:32:20.976Z,37.38
2022-08-11T16:35:10.218Z,37.40
2022-08-11T16:37:57.741Z,37.42
2022-08-11T16:40:27.815Z,37.56
2022-08-11T16:43:15.266Z,37.79
2022-08-11T16:46:02.796Z,37.80
2022-08-11T16:48:37.541Z,37.80
2022-08-11T16:51:08.558Z,38.01
2022-08-11T16:53:59.726Z,38.14
2022-08-11T16:56:31.684Z,38.24
2022-08-11T16:59:18.040Z,38.32
2022-08-11T17:01:49.971Z,38.58
2022-08-11T17:04:44.216Z,39.24
2022-08-11T17:07:43.358Z,38.93
2022-08-11T17:10:51.309Z,39.38
2022-08-11T17:13:25.701Z,39.58
2022-08-11T17:16:12.933Z,40.68
2022-08-11T17:18:48.023Z,41.94
2022-08-11T17:21:19.242Z,41.87
2022-08-11T17:23:51.305Z,40.72
2022-08-11T17:26:22.570Z,41.29
2022-08-11T17:28:54.303Z,41.56
2022-08-11T17:31:41.652Z,41.91
2022-08-11T17:34:29.343Z,45.01
2022-08-11T17:37:00.370Z,45.00
2022-08-11T17:39:30.695Z,44.80
2022-08-11T17:42:18.301Z,44.21
2022-08-11T17:45:06.270Z,43.93
2022-08-11T17:47:53.698Z,44.14
2022-08-11T17:50:23.703Z,43.94
2022-08-11T17:53:23.003Z,44.05
2022-08-11T17:56:10.355Z,44.67
2022-08-11T17:58:57.902Z,45.30
2022-08-11T18:01:28.057Z,45.97
2022-08-11T18:03:58.541Z,45.66
2022-08-11T18:06:34.375Z,45.21
2022-08-11T18:09:23.807Z,44.56
2022-08-11T18:12:12.825Z,44.29
2022-08-11T18:15:03.085Z,43.91
2022-08-11T18:17:50.475Z,43.87
2022-08-11T18:20:39.231Z,43.87
2022-08-11T18:23:45.531Z,43.99
2022-08-11T18:26:36.719Z,43.82
2022-08-11T18:29:24.393Z,43.68
2022-08-11T18:32:12.248Z,43.69
2022-08-11T18:35:10.107Z,44.31
2022-08-11T18:37:57.835Z,44.94
2022-08-11T18:40:45.869Z,46.10
2022-08-11T18:43:33.771Z,47.43
2022-08-11T18:46:21.850Z,46.20
2022-08-11T18:49:15.515Z,46.32
2022-08-11T18:52:05.694Z,47.26
2022-08-11T18:54:53.494Z,47.41
2022-08-11T18:57:50.139Z,47.60
2022-08-11T19:00:45.246Z,47.67
2022-08-11T19:03:43.191Z,47.75
2022-08-11T19:06:38.198Z,47.46
2022-08-11T19:09:27.927Z,47.36
2022-08-11T19:12:15.700Z,47.52
2022-08-11T19:15:03.494Z,47.72
2022-08-11T19:17:51.337Z,47.72
2022-08-11T19:20:40.329Z,47.66
2022-08-11T19:23:27.657Z,47.27
2022-08-11T19:26:15.134Z,49.11
2022-08-11T19:29:03.182Z,48.80
2022-08-11T19:31:50.613Z,48.78
2022-08-11T19:34:39.557Z,49.30
2022-08-11T19:37:27.481Z,49.62
2022-08-11T19:40:15.982Z,48.64
2022-08-11T19:43:03.510Z,49.45
2022-08-11T19:45:52.794Z,50.56
2022-08-11T19:48:40.717Z,51.47
2022-08-11T19:51:28.768Z,52.85
2022-08-11T19:54:16.413Z,54.49
2022-08-11T19:57:03.831Z,54.96
2022-08-11T19:59:51.335Z,54.44
2022-08-11T20:02:39.329Z,53.76
2022-08-11T20:05:27.930Z,52.85
2022-08-11T20:08:18.637Z,54.09
2022-08-11T20:11:06.854Z,53.95
2022-08-11T20:13:54.404Z,52.81
2022-08-11T20:16:42.380Z,54.16
2022-08-11T20:19:55.105Z,54.57
2022-08-11T20:22:38.145Z,55.82
2022-08-11T20:25:26.516Z,58.81
2022-08-11T20:28:14.411Z,59.61
2022-08-11T20:31:02.360Z,61.23
2022-08-11T20:33:50.296Z,60.14
2022-08-11T20:36:37.945Z,58.91
2022-08-11T20:39:26.047Z,57.67
2022-08-11T20:42:14.047Z,57.70
2022-08-11T20:45:02.108Z,57.23
2022-08-11T20:47:58.927Z,56.10
2022-08-11T20:50:47.743Z,56.08
2022-08-11T20:53:35.763Z,56.38
2022-08-11T20:56:28.979Z,56.53
2022-08-11T20:59:18.802Z,56.45
2022-08-11T21:02:09.845Z,56.40
2022-08-11T21:05:00.290Z,56.18
2022-08-11T21:07:55.368Z,56.31
2022-08-11T21:10:44.637Z,56.50
2022-08-11T21:13:36.953Z,56.90
2022-08-11T21:16:27.297Z,57.14
2022-08-11T21:19:17.138Z,57.26
2022-08-11T21:22:04.644Z,57.46
2022-08-11T21:24:52.875Z,57.70
2022-08-11T21:27:40.941Z,57.64
2022-08-11T21:30:29.222Z,57.16
2022-08-11T21:33:17.336Z,56.57
2022-08-11T21:36:04.923Z,56.19
2022-08-11T21:38:52.578Z,56.17
2022-08-11T21:41:40.185Z,56.30
2022-08-11T21:44:36.908Z,56.83
2022-08-11T21:47:42.430Z,57.36
2022-08-11T21:50:31.955Z,57.94
2022-08-11T21:53:19.781Z,58.06
2022-08-11T21:56:07.813Z,58.24
2022-08-11T21:58:55.331Z,58.49
2022-08-11T22:01:42.961Z,58.45
2022-08-11T22:04:30.805Z,58.51
2022-08-11T22:07:18.581Z,58.63
2022-08-11T22:10:40.865Z,58.67
2022-08-11T22:13:13.704Z,58.75
2022-08-11T22:16:01.316Z,58.62
2022-08-11T22:18:48.944Z,58.80
2022-08-11T22:22:01.427Z,58.78
2022-08-11T22:24:45.919Z,58.60
2022-08-11T22:27:33.471Z,58.47
2022-08-11T22:30:21.275Z,58.21
2022-08-11T22:33:09.335Z,58.20
2022-08-11T22:35:56.905Z,58.18
2022-08-11T22:38:44.599Z,58.36
2022-08-11T22:41:32.298Z,58.29
2022-08-11T22:44:20.218Z,58.14
2022-08-11T22:47:07.548Z,58.08
2022-08-11T22:49:57.952Z,57.94
2022-08-11T22:52:45.973Z,57.89
2022-08-11T22:55:33.892Z,57.47
2022-08-11T22:58:21.680Z,57.18
2022-08-11T23:01:09.648Z,56.76
2022-08-11T23:03:57.142Z,56.11
2022-08-11T23:06:44.759Z,55.58
2022-08-11T23:09:32.669Z,54.66
2022-08-11T23:12:20.191Z,54.57
2022-08-11T23:15:10.105Z,54.39
2022-08-11T23:17:58.094Z,54.07
2022-08-11T23:20:57.301Z,53.84
2022-08-11T23:23:46.511Z,53.35
2022-08-11T23:26:34.410Z,52.36
2022-08-11T23:29:22.090Z,50.86
2022-08-11T23:32:09.707Z,49.81
2022-08-11T23:35:04.302Z,49.23
2022-08-11T23:38:06.181Z,48.12
2022-08-11T23:40:53.894Z,47.90
2022-08-11T23:43:41.506Z,48.01
2022-08-11T23:46:28.935Z,48.21
2022-08-11T23:49:17.970Z,48.42
2022-08-11T23:52:05.550Z,48.91
2022-08-11T23:54:53.585Z,48.88
2022-08-11T23:57:47.589Z,48.70
